Time;durP1;ratioP1;P1;durP2;ratioP2;P2;SDS_P1;SDS_P2;PMS_P1;PMS_P2;Temp;Humidity;BMP_temperature;BMP_pressure;BME280_temperature;BME280_humidity;BME280_pressure;Samples;Min_cycle;Max_cycle;Signal;HPM_P1;HPM_P2
2023/01/29 00:02:11;;;;;;;5.37;3.97;;;;;;;2.93;78.88;97021.84;5046819;28;20272;-74
2023/01/29 00:04:38;;;;;;;4.27;3.87;;;;;;;2.89;78.48;97022.78;5045512;28;20182;-73
2023/01/29 00:07:05;;;;;;;5.60;4.10;;;;;;;2.94;78.00;97013.34;5045360;28;20194;-75
2023/01/29 00:09:33;;;;;;;4.90;4.17;;;;;;;2.98;77.80;97025.19;5046310;28;20214;-75
2023/01/29 00:12:00;;;;;;;6.23;4.40;;;;;;;2.98;78.03;97022.63;5044434;28;20288;-74
2023/01/29 00:14:27;;;;;;;5.23;3.70;;;;;;;3.11;77.53;97019.00;5062009;28;20235;-76
2023/01/29 00:16:54;;;;;;;5.27;3.60;;;;;;;3.17;77.08;97016.31;5045297;28;20201;-74
2023/01/29 00:19:22;;;;;;;5.37;3.80;;;;;;;3.23;77.29;97018.81;5045536;28;20224;-73
2023/01/29 00:21:49;;;;;;;4.70;3.80;;;;;;;3.36;77.01;97021.97;5045393;28;20576;-74
2023/01/29 00:24:16;;;;;;;5.13;4.53;;;;;;;3.32;76.93;97017.78;5061707;28;20194;-72
2023/01/29 00:26:44;;;;;;;4.93;4.30;;;;;;;3.08;77.49;97031.00;5044635;28;20226;-73
2023/01/29 00:29:11;;;;;;;7.00;4.63;;;;;;;3.14;77.81;97020.66;5061057;28;20182;-74
2023/01/29 00:31:38;;;;;;;5.40;4.57;;;;;;;3.17;77.36;97021.44;5046608;28;20279;-74
2023/01/29 00:34:06;;;;;;;5.07;4.43;;;;;;;3.25;77.22;97026.44;5060538;28;20709;-74
2023/01/29 00:36:33;;;;;;;6.00;4.57;;;;;;;3.20;77.44;97020.56;5046692;28;20281;-74
2023/01/29 00:39:09;;;;;;;5.87;4.20;;;;;;;3.18;76.98;97023.16;5052466;28;20202;-74
2023/01/29 00:49:55;;;;;;;5.80;4.87;;;;;;;3.38;77.63;97024.50;5028998;28;20193;-74
2023/01/29 00:52:22;;;;;;;6.27;4.60;;;;;;;3.54;77.08;97033.59;5029138;28;20245;-73
2023/01/29 00:54:52;;;;;;;6.80;5.03;;;;;;;3.48;76.91;97031.16;5029729;28;20733;-75
2023/01/29 00:57:20;;;;;;;4.77;4.03;;;;;;;3.35;77.86;97030.53;5029991;28;20207;-75
2023/01/29 00:59:47;;;;;;;5.73;4.30;;;;;;;3.38;77.87;97024.50;5028993;28;20743;-74
2023/01/29 01:05:04;;;;;;;5.43;4.47;;;;;;;3.18;79.20;97033.38;5027501;28;20229;-75
2023/01/29 01:07:32;;;;;;;6.43;4.67;;;;;;;2.92;80.04;97040.66;5028516;28;20411;-77
2023/01/29 01:12:45;;;;;;;6.73;5.03;;;;;;;3.07;80.63;97042.94;5029035;28;20289;-75
2023/01/29 01:15:12;;;;;;;6.40;4.90;;;;;;;3.15;80.13;97027.47;5029939;28;20218;-75
2023/01/29 01:17:39;;;;;;;5.77;4.73;;;;;;;3.10;80.47;97035.22;5028428;28;20194;-76
2023/01/29 01:20:08;;;;;;;7.47;5.67;;;;;;;3.07;81.34;97032.69;5028590;28;20214;-75
2023/01/29 01:22:35;;;;;;;7.63;5.33;;;;;;;3.12;81.74;97030.94;5028752;28;20698;-76
2023/01/29 01:25:03;;;;;;;8.53;6.00;;;;;;;3.16;82.29;97027.44;5027921;28;20277;-76
2023/01/29 01:27:31;;;;;;;11.40;7.70;;;;;;;3.18;81.34;97042.75;5029205;28;20280;-77
2023/01/29 01:29:58;;;;;;;9.07;6.87;;;;;;;2.99;81.29;97046.47;5027183;28;20190;-77
2023/01/29 01:32:25;;;;;;;10.27;6.50;;;;;;;3.09;82.16;97053.97;5011848;28;20217;-74
2023/01/29 01:34:52;;;;;;;10.20;6.57;;;;;;;3.12;81.37;97053.94;5027999;28;20193;-76
2023/01/29 01:37:19;;;;;;;8.13;6.23;;;;;;;2.95;82.24;97050.81;5027930;28;20933;-76
2023/01/29 01:39:47;;;;;;;8.37;6.20;;;;;;;3.09;82.15;97045.50;5028310;28;20218;-76
2023/01/29 01:42:15;;;;;;;7.53;5.90;;;;;;;3.30;81.07;97053.63;5028887;28;20218;-75
2023/01/29 01:45:03;;;;;;;8.13;6.30;;;;;;;3.28;80.72;97050.25;5027418;28;20724;-77
2023/01/29 01:47:34;;;;;;;9.07;6.23;;;;;;;3.23;80.36;97046.09;5026544;28;20195;-76
2023/01/29 01:50:30;;;;;;;9.87;6.50;;;;;;;3.09;81.31;97059.09;5028004;28;20347;-76
2023/01/29 01:53:06;;;;;;;8.37;6.30;;;;;;;2.89;81.75;97044.94;5022944;28;20583;-76
2023/01/29 01:55:35;;;;;;;8.60;6.27;;;;;;;3.02;82.03;97054.13;5028192;28;20555;-76
2023/01/29 01:58:09;;;;;;;8.67;6.20;;;;;;;2.98;82.25;97055.03;5027037;28;20190;-76
2023/01/29 02:00:38;;;;;;;8.87;6.00;;;;;;;3.19;81.45;97064.94;5026259;28;20191;-75
2023/01/29 02:11:45;;;;;;;7.00;5.47;;;;;;;3.11;80.62;97062.47;5027475;28;20261;-77
2023/01/29 02:14:13;;;;;;;7.17;5.30;;;;;;;3.24;80.11;97065.69;5026381;28;20618;-77
2023/01/29 02:16:40;;;;;;;8.07;5.23;;;;;;;3.26;79.43;97067.34;5043771;28;20191;-76
2023/01/29 02:19:19;;;;;;;6.10;4.87;;;;;;;3.25;78.72;97060.56;5027032;28;20179;-76
2023/01/29 02:22:01;;;;;;;7.17;4.50;;;;;;;3.19;78.48;97070.06;5010010;28;20707;-77
2023/01/29 02:24:51;;;;;;;5.50;4.70;;;;;;;3.15;77.72;97061.56;5027380;28;20201;-77
2023/01/29 02:27:29;;;;;;;7.27;5.50;;;;;;;3.04;78.96;97068.59;5027478;28;20268;-75
2023/01/29 02:30:13;;;;;;;6.83;4.97;;;;;;;3.11;77.82;97066.78;5026651;28;20202;-75
2023/01/29 02:33:01;;;;;;;4.83;4.33;;;;;;;3.27;77.85;97073.31;5027075;28;20256;-76
2023/01/29 02:35:36;;;;;;;5.67;4.17;;;;;;;3.30;77.47;97060.47;5027256;28;20189;-75
2023/01/29 02:38:33;;;;;;;4.93;4.17;;;;;;;3.40;77.30;97072.22;5028253;28;20194;-75
2023/01/29 02:41:08;;;;;;;4.53;4.00;;;;;;;3.41;78.47;97073.06;5025886;28;20709;-75
2023/01/29 02:43:53;;;;;;;5.63;4.67;;;;;;;3.45;79.42;97074.72;5025663;28;20244;-75
2023/01/29 02:46:35;;;;;;;7.53;5.43;;;;;;;3.52;78.99;97064.34;5042784;28;20229;-75
2023/01/29 02:49:33;;;;;;;5.50;4.67;;;;;;;3.46;78.83;97067.03;5025800;28;20710;-75
2023/01/29 02:52:32;;;;;;;8.33;6.53;;;;;;;3.52;79.83;97074.59;5027019;28;20297;-74
2023/01/29 02:55:22;;;;;;;23.13;12.50;;;;;;;3.46;79.57;97063.63;5026635;28;20638;-74
2023/01/29 02:57:54;;;;;;;10.10;5.97;;;;;;;3.26;80.59;97074.19;5025921;28;20194;-77
2023/01/29 03:00:44;;;;;;;7.13;5.07;;;;;;;3.43;80.74;97069.63;5009693;28;20183;-77
2023/01/29 03:03:11;;;;;;;8.13;5.67;;;;;;;3.51;81.09;97072.03;5026419;28;20202;-77
2023/01/29 03:06:05;;;;;;;7.23;5.47;;;;;;;3.49;81.09;97078.91;5026491;28;20783;-77
2023/01/29 03:08:44;;;;;;;7.97;5.50;;;;;;;3.47;82.14;97072.97;5025876;28;20210;-76
2023/01/29 03:11:15;;;;;;;7.93;5.83;;;;;;;3.53;81.62;97076.25;5025016;28;20194;-76
2023/01/29 03:13:51;;;;;;;9.50;6.23;;;;;;;3.37;82.15;97061.19;5025223;28;20317;-77
2023/01/29 03:16:29;;;;;;;10.63;6.37;;;;;;;3.32;82.92;97080.94;5026103;28;20182;-76
2023/01/29 03:19:12;;;;;;;9.03;6.47;;;;;;;3.31;84.14;97080.06;5024961;28;20787;-76
2023/01/29 03:21:50;;;;;;;8.57;6.47;;;;;;;3.13;84.86;97060.75;5026983;28;20217;-76
2023/01/29 03:33:20;;;;;;;8.90;6.40;;;;;;;3.17;86.44;97093.06;5010512;28;20196;-75
2023/01/29 03:35:55;;;;;;;9.60;6.73;;;;;;;3.23;86.23;97098.13;5041091;28;20256;-74
2023/01/29 03:38:30;;;;;;;9.43;6.00;;;;;;;3.20;86.07;97093.03;5026613;28;20289;-73
2023/01/29 03:41:13;;;;;;;9.43;6.47;;;;;;;3.21;85.74;97094.72;5024854;28;20271;-75
2023/01/29 03:44:19;;;;;;;11.07;8.20;;;;;;;3.33;85.90;97095.41;5008629;28;20209;-75
2023/01/29 03:46:58;;;;;;;11.20;6.87;;;;;;;3.25;86.57;97096.38;4987571;28;20283;-73
2023/01/29 03:49:52;;;;;;;10.50;7.60;;;;;;;3.32;86.04;97107.34;5026032;28;20240;-76
2023/01/29 03:52:29;;;;;;;11.17;7.30;;;;;;;3.19;86.33;97100.75;5024897;28;20269;-73
2023/01/29 03:55:09;;;;;;;10.80;7.23;;;;;;;3.15;86.43;97105.06;5025875;28;20186;-72
2023/01/29 03:57:56;;;;;;;11.27;7.80;;;;;;;3.11;87.17;97113.63;5024402;28;20204;-73
2023/01/29 04:00:33;;;;;;;9.03;6.10;;;;;;;3.04;87.27;97106.94;5025478;28;20302;-74
2023/01/29 04:03:28;;;;;;;9.53;7.17;;;;;;;2.95;87.83;97107.06;5025256;28;20189;-74
2023/01/29 04:06:10;;;;;;;9.50;6.57;;;;;;;2.97;88.22;97112.16;5007743;28;20234;-74
2023/01/29 04:09:03;;;;;;;9.10;6.60;;;;;;;2.89;88.75;97117.41;5010560;28;20198;-74
2023/01/29 04:11:35;;;;;;;14.20;10.33;;;;;;;3.01;88.26;97112.09;5024954;28;20669;-73
2023/01/29 04:14:03;;;;;;;11.00;8.27;;;;;;;2.80;88.45;97111.59;5024375;28;20673;-73
2023/01/29 04:16:36;;;;;;;9.63;7.33;;;;;;;2.94;88.54;97119.91;5026748;28;20190;-74
2023/01/29 04:19:19;;;;;;;11.90;7.93;;;;;;;2.94;87.90;97115.63;5024275;28;20966;-74
2023/01/29 04:21:52;;;;;;;9.43;7.43;;;;;;;2.88;88.16;97105.50;5010504;28;20214;-73
2023/01/29 04:24:19;;;;;;;10.80;7.33;;;;;;;2.82;88.98;97120.06;5028619;28;20266;-73
2023/01/29 04:27:05;;;;;;;10.20;7.53;;;;;;;2.83;88.69;97127.72;5029831;28;20222;-73
2023/01/29 04:29:37;;;;;;;9.77;6.53;;;;;;;2.73;89.24;97107.41;5029164;28;20618;-72
2023/01/29 04:32:29;;;;;;;9.93;6.70;;;;;;;2.77;88.57;97121.84;5027746;28;20213;-73
2023/01/29 04:35:05;;;;;;;14.50;9.33;;;;;;;2.67;89.62;97131.34;5012376;28;20323;-73
2023/01/29 04:37:34;;;;;;;13.43;8.30;;;;;;;2.83;89.13;97135.38;5028579;28;20201;-73
2023/01/29 04:40:13;;;;;;;10.67;7.43;;;;;;;2.73;88.84;97140.66;5028164;28;20712;-74
2023/01/29 04:42:54;;;;;;;12.70;7.60;;;;;;;2.74;89.29;97127.00;5030222;28;20626;-74
2023/01/29 04:45:49;;;;;;;10.67;7.03;;;;;;;2.71;90.19;97138.13;5029441;28;20248;-74
2023/01/29 04:48:29;;;;;;;10.90;7.43;;;;;;;2.68;90.54;97143.25;5012201;28;20292;-75
2023/01/29 04:51:24;;;;;;;11.10;8.07;;;;;;;2.79;90.51;97146.53;5029990;28;20579;-74
2023/01/29 04:54:16;;;;;;;12.10;8.30;;;;;;;2.79;90.13;97146.53;5028964;28;20191;-74
2023/01/29 04:56:46;;;;;;;11.30;7.67;;;;;;;2.71;90.35;97142.38;5012123;28;20595;-75
2023/01/29 04:59:20;;;;;;;11.20;7.00;;;;;;;2.85;90.36;97150.69;5028362;28;20305;-76
2023/01/29 05:01:47;;;;;;;12.73;7.80;;;;;;;2.88;90.07;97146.41;5028689;28;20194;-76
2023/01/29 05:04:19;;;;;;;12.03;8.00;;;;;;;2.43;90.39;97106.97;5029760;28;20658;-74
2023/01/29 05:06:47;;;;;;;12.73;7.47;;;;;;;2.67;90.55;97144.13;5027335;28;20218;-76
2023/01/29 05:09:16;;;;;;;12.77;7.77;;;;;;;2.73;90.16;97150.88;5029812;28;20197;-75
2023/01/29 05:11:46;;;;;;;10.77;7.23;;;;;;;2.67;90.71;97146.69;5027710;28;20225;-76
2023/01/29 05:14:17;;;;;;;11.93;8.10;;;;;;;2.66;90.53;97162.88;5029377;28;20194;-76
2023/01/29 05:16:49;;;;;;;13.10;8.87;;;;;;;2.65;90.69;97171.44;5029513;28;20223;-77
2023/01/29 05:19:16;;;;;;;10.73;7.93;;;;;;;2.39;91.79;97170.91;5028857;28;20568;-75
2023/01/29 05:21:47;;;;;;;12.03;8.00;;;;;;;2.40;92.41;97183.66;5029674;28;20704;-74
2023/01/29 05:24:24;;;;;;;14.90;9.40;;;;;;;2.51;92.61;97183.53;5028598;28;20190;-75
2023/01/29 05:29:45;;;;;;;11.50;8.27;;;;;;;2.48;92.71;97179.31;5027719;28;20217;-76
2023/01/29 05:32:14;;;;;;;18.00;10.30;;;;;;;2.45;92.72;97191.28;5028498;28;20214;-75
2023/01/29 05:34:41;;;;;;;15.57;9.10;;;;;;;2.35;92.58;97179.44;5028709;28;20198;-75
2023/01/29 05:37:09;;;;;;;13.10;9.23;;;;;;;2.52;92.29;97195.44;5028193;28;20194;-76
2023/01/29 05:39:36;;;;;;;11.87;8.27;;;;;;;2.38;91.82;97194.75;5029114;28;20601;-75
2023/01/29 05:42:03;;;;;;;13.47;9.47;;;;;;;2.44;92.06;97195.53;5028615;28;20268;-76
2023/01/29 05:44:30;;;;;;;13.47;9.33;;;;;;;2.53;91.72;97197.16;5028948;28;20673;-76
2023/01/29 05:46:57;;;;;;;16.53;9.33;;;;;;;2.49;91.92;97208.28;5028900;28;20317;-77
2023/01/29 05:49:25;;;;;;;16.60;10.43;;;;;;;2.65;91.38;97209.78;5028310;28;20190;-77
2023/01/29 05:51:52;;;;;;;17.97;11.07;;;;;;;2.60;90.21;97208.16;5029232;28;20218;-76
2023/01/29 05:54:18;;;;;;;15.60;11.27;;;;;;;2.58;90.59;97218.38;5043354;28;20190;-76
2023/01/29 05:56:46;;;;;;;18.60;11.03;;;;;;;2.58;90.17;97213.25;5028800;28;20193;-73
2023/01/29 05:59:14;;;;;;;17.87;12.10;;;;;;;2.59;90.25;97216.66;5026630;28;20281;-73
2023/01/29 06:01:41;;;;;;;15.80;11.20;;;;;;;2.58;90.30;97220.09;5039661;28;20276;-74
2023/01/29 06:04:08;;;;;;;15.57;10.37;;;;;;;2.70;89.22;97223.34;5028598;28;20187;-73
2023/01/29 06:06:35;;;;;;;15.40;9.53;;;;;;;2.65;88.90;97232.78;5027755;28;20309;-74
2023/01/29 06:09:02;;;;;;;14.73;9.30;;;;;;;2.62;88.82;97220.03;5028763;28;20189;-74
2023/01/29 06:11:29;;;;;;;13.03;8.47;;;;;;;2.49;89.52;97233.84;5026018;28;20222;-75
2023/01/29 06:13:56;;;;;;;13.67;9.17;;;;;;;2.32;90.45;97235.72;5027319;28;20276;-75
2023/01/29 06:16:23;;;;;;;10.00;7.03;;;;;;;2.02;91.42;97236.84;5026343;28;20221;-74
2023/01/29 06:18:50;;;;;;;11.20;8.27;;;;;;;2.09;92.39;97235.09;5026810;28;20202;-73
2023/01/29 06:21:18;;;;;;;13.57;9.17;;;;;;;2.20;92.22;97238.41;5027977;28;20731;-73
2023/01/29 06:23:46;;;;;;;14.93;8.67;;;;;;;2.41;91.53;97245.84;5027726;28;20259;-75
2023/01/29 06:26:14;;;;;;;13.93;8.90;;;;;;;2.58;90.91;97238.81;5028199;28;20667;-74
2023/01/29 06:28:44;;;;;;;14.50;9.93;;;;;;;2.64;90.15;97241.31;5026017;28;20195;-73
2023/01/29 06:31:11;;;;;;;16.43;10.70;;;;;;;2.57;90.20;97247.38;5027976;28;20557;-74
2023/01/29 06:33:58;;;;;;;21.87;13.20;;;;;;;2.47;90.54;97217.66;5027861;28;20190;-76
2023/01/29 06:36:25;;;;;;;23.60;12.47;;;;;;;2.65;90.51;97248.13;5047271;28;20256;-73
2023/01/29 06:38:52;;;;;;;20.40;14.07;;;;;;;2.70;89.86;97248.91;5039558;28;20252;-74
2023/01/29 06:41:24;;;;;;;17.10;11.57;;;;;;;2.88;89.53;97258.94;5029429;28;20740;-73
2023/01/29 06:43:52;;;;;;;24.97;15.80;;;;;;;2.83;89.77;97260.69;5043043;28;20194;-75
2023/01/29 06:46:19;;;;;;;23.13;13.43;;;;;;;2.79;89.42;97256.47;5042588;28;20215;-76
2023/01/29 06:48:48;;;;;;;20.53;13.10;;;;;;;2.92;89.26;97268.25;5026518;28;20202;-75
2023/01/29 06:51:15;;;;;;;15.67;11.37;;;;;;;2.82;89.30;97271.78;5027386;28;20197;-75
2023/01/29 06:53:43;;;;;;;20.37;12.03;;;;;;;2.80;89.70;97265.00;5027544;28;20258;-77
2023/01/29 06:56:15;;;;;;;15.93;11.13;;;;;;;2.58;89.19;97245.66;5010588;28;20555;-75
2023/01/29 06:58:43;;;;;;;14.83;10.83;;;;;;;2.69;90.01;97265.13;5046368;28;20185;-75
2023/01/29 07:01:11;;;;;;;13.50;10.53;;;;;;;2.83;89.94;97268.34;5042836;28;20201;-74
2023/01/29 07:03:58;;;;;;;11.03;8.23;;;;;;;2.88;89.85;97279.38;5046934;28;20515;-75
2023/01/29 07:06:27;;;;;;;16.17;10.30;;;;;;;3.01;89.03;97280.09;5047096;28;20697;-76
2023/01/29 07:08:54;;;;;;;14.37;8.43;;;;;;;2.78;90.00;97271.84;5046977;28;20278;-77
2023/01/29 07:11:21;;;;;;;9.13;7.57;;;;;;;2.85;89.98;97276.84;5046478;28;20764;-76
2023/01/29 07:13:48;;;;;;;11.70;7.73;;;;;;;2.97;89.71;97281.81;5046058;28;20728;-74
2023/01/29 07:16:17;;;;;;;9.67;6.60;;;;;;;3.01;89.21;97275.78;5045027;28;20206;-75
2023/01/29 07:18:46;;;;;;;9.10;6.70;;;;;;;2.84;88.68;97272.63;5028406;28;20297;-74
2023/01/29 07:21:13;;;;;;;9.53;7.03;;;;;;;2.85;88.93;97266.63;5036835;28;20202;-75
2023/01/29 07:23:40;;;;;;;12.73;9.07;;;;;;;3.13;88.66;97280.75;5033806;28;20289;-74
2023/01/29 07:26:09;;;;;;;10.70;8.30;;;;;;;3.21;89.10;97278.94;5046517;28;20259;-75
2023/01/29 07:28:37;;;;;;;11.77;7.97;;;;;;;3.23;88.49;97287.47;5041910;28;20271;-74
2023/01/29 07:31:06;;;;;;;10.43;7.60;;;;;;;3.12;88.45;97293.56;5037587;28;20186;-77
2023/01/29 07:33:33;;;;;;;9.83;7.43;;;;;;;2.98;88.89;97291.19;5046253;28;20304;-77
2023/01/29 07:36:00;;;;;;;12.20;8.17;;;;;;;3.06;88.62;97279.16;5045959;28;20207;-74
2023/01/29 07:38:27;;;;;;;11.70;8.40;;;;;;;3.27;88.90;97294.25;5055612;28;20194;-76
2023/01/29 07:40:55;;;;;;;13.57;7.40;;;;;;;3.34;88.63;97296.72;5051665;28;20213;-75
2023/01/29 07:43:23;;;;;;;8.57;6.77;;;;;;;3.43;87.71;97278.66;5044851;28;20733;-76
2023/01/29 07:45:51;;;;;;;10.47;7.40;;;;;;;3.23;87.70;97290.03;5044980;28;20204;-74
2023/01/29 07:48:18;;;;;;;11.33;8.30;;;;;;;3.24;87.90;97301.94;5046612;28;20221;-73
2023/01/29 07:50:54;;;;;;;13.87;8.93;;;;;;;3.22;88.04;97285.75;5028214;28;20200;-75
2023/01/29 07:53:21;;;;;;;10.73;7.60;;;;;;;3.43;88.08;97309.38;5034156;28;20207;-74
2023/01/29 07:55:48;;;;;;;11.73;7.83;;;;;;;3.41;87.41;97308.53;5025454;28;20277;-76
2023/01/29 07:58:15;;;;;;;9.17;6.90;;;;;;;3.33;86.73;97305.25;5026706;28;20299;-73
2023/01/29 08:00:43;;;;;;;11.87;8.90;;;;;;;3.39;87.10;97318.81;5026476;28;20187;-73
2023/01/29 08:03:16;;;;;;;11.17;7.43;;;;;;;3.41;87.04;97316.22;5026842;28;20190;-75
2023/01/29 08:05:44;;;;;;;14.33;9.47;;;;;;;3.14;87.26;97315.72;5035042;28;20280;-74
2023/01/29 08:08:11;;;;;;;15.93;10.13;;;;;;;3.24;87.59;97319.84;5034859;28;20247;-73
2023/01/29 08:10:39;;;;;;;12.63;8.50;;;;;;;3.43;87.17;97305.09;5032364;28;20191;-77
2023/01/29 08:13:07;;;;;;;9.93;7.47;;;;;;;3.47;86.35;97319.56;5025807;28;20716;-76
2023/01/29 08:15:34;;;;;;;8.37;6.63;;;;;;;3.61;85.18;97319.34;5042070;28;20209;-74
2023/01/29 08:18:21;;;;;;;10.23;7.77;;;;;;;3.51;85.17;97312.66;5042879;28;20188;-74
2023/01/29 08:20:48;;;;;;;11.33;8.37;;;;;;;3.34;85.89;97319.75;5044576;28;20198;-73
2023/01/29 08:23:18;;;;;;;12.03;8.97;;;;;;;3.06;85.68;97309.84;5046413;28;20741;-74
2023/01/29 08:25:46;;;;;;;11.50;7.57;;;;;;;3.26;85.91;97318.13;5060549;28;20186;-75
2023/01/29 08:28:13;;;;;;;11.87;8.60;;;;;;;3.37;86.06;97319.69;5046298;28;20221;-75
2023/01/29 08:30:40;;;;;;;9.77;7.80;;;;;;;3.56;84.70;97319.44;5061143;28;20181;-76
2023/01/29 08:33:07;;;;;;;23.07;14.27;;;;;;;3.55;84.24;97324.56;5045703;28;20203;-75
2023/01/29 08:35:35;;;;;;;12.50;8.83;;;;;;;3.62;84.55;97324.47;5045894;28;20185;-77
2023/01/29 08:38:04;;;;;;;11.73;8.17;;;;;;;3.73;84.30;97329.44;5044049;28;20727;-78
2023/01/29 08:40:33;;;;;;;15.70;10.70;;;;;;;3.65;84.17;97326.13;5046522;28;20186;-78
2023/01/29 08:43:03;;;;;;;14.23;9.47;;;;;;;3.63;83.55;97317.59;5027548;28;20187;-78
2023/01/29 08:45:36;;;;;;;11.23;7.83;;;;;;;3.79;83.82;97329.34;5046316;28;20188;-78
2023/01/29 08:48:03;;;;;;;13.80;8.57;;;;;;;3.90;82.55;97322.34;5045583;28;20221;-76
2023/01/29 08:50:33;;;;;;;12.77;8.73;;;;;;;4.03;82.94;97323.84;5045608;28;20197;-77
2023/01/29 08:53:06;;;;;;;14.63;8.53;;;;;;;4.14;83.32;97333.03;5045921;28;20183;-76
2023/01/29 08:55:38;;;;;;;12.83;9.13;;;;;;;4.21;84.23;97332.94;5045105;28;20190;-76
2023/01/29 08:58:09;;;;;;;12.00;8.23;;;;;;;4.20;83.36;97336.41;5046192;28;20198;-78
2023/01/29 09:00:37;;;;;;;11.07;7.87;;;;;;;4.13;82.68;97328.81;5045054;28;20626;-78
2023/01/29 09:03:06;;;;;;;14.07;7.87;;;;;;;4.18;82.73;97323.63;5044394;28;20677;-78
2023/01/29 09:05:35;;;;;;;11.07;7.37;;;;;;;4.12;83.37;97328.84;5040909;28;20251;-79
2023/01/29 09:08:02;;;;;;;11.00;8.57;;;;;;;4.27;82.81;97338.81;5044195;28;20236;-77
2023/01/29 09:10:29;;;;;;;11.57;9.03;;;;;;;4.36;82.96;97336.13;5049351;28;20188;-78
2023/01/29 09:12:56;;;;;;;11.63;8.20;;;;;;;4.36;83.05;97322.44;5047134;28;20981;-76
2023/01/29 09:15:24;;;;;;;10.17;7.37;;;;;;;4.40;82.65;97330.06;5049560;28;20281;-77
2023/01/29 09:17:51;;;;;;;12.77;8.97;;;;;;;4.17;82.84;97293.72;5048514;28;20197;-78
2023/01/29 09:20:19;;;;;;;13.13;9.30;;;;;;;4.50;81.70;97338.44;5049278;28;20576;-78
2023/01/29 09:22:48;;;;;;;15.70;10.53;;;;;;;4.48;81.52;97335.91;5048641;28;20194;-77
2023/01/29 09:25:15;;;;;;;14.80;9.27;;;;;;;4.52;80.94;97329.84;5048639;28;20184;-77
2023/01/29 09:27:42;;;;;;;12.70;9.40;;;;;;;4.49;80.90;97340.16;5048991;28;20257;-77
2023/01/29 09:30:10;;;;;;;15.40;9.87;;;;;;;4.44;80.38;97325.72;5048327;28;20194;-78
2023/01/29 09:32:37;;;;;;;15.23;9.67;;;;;;;4.41;80.82;97324.06;5049342;28;20183;-77
2023/01/29 09:35:22;;;;;;;15.90;10.70;;;;;;;4.61;79.28;97324.56;5048274;28;20526;-78
2023/01/29 09:37:50;;;;;;;14.37;10.27;;;;;;;4.67;79.19;97323.59;5048751;28;20679;-76
2023/01/29 09:40:37;;;;;;;12.57;8.73;;;;;;;4.68;80.68;97321.00;5048135;28;20203;-76
2023/01/29 09:43:39;;;;;;;13.47;9.60;;;;;;;4.57;81.10;97307.56;5034739;28;20202;-76
2023/01/29 09:46:22;;;;;;;12.27;9.00;;;;;;;4.79;80.99;97313.97;5048567;28;20624;-77
2023/01/29 09:49:00;;;;;;;19.73;10.37;;;;;;;4.88;81.41;97303.50;5047669;28;20627;-75
2023/01/29 09:51:33;;;;;;;15.77;10.73;;;;;;;4.74;82.04;97299.56;5047857;28;20219;-78
2023/01/29 09:54:23;;;;;;;19.27;11.70;;;;;;;4.97;81.30;97312.75;5048469;28;20280;-77
2023/01/29 09:56:55;;;;;;;13.37;9.83;;;;;;;4.74;82.32;97295.25;5047243;28;20196;-76
2023/01/29 09:59:26;;;;;;;13.67;9.67;;;;;;;4.59;82.61;97285.28;5048015;28;20229;-77
2023/01/29 10:02:10;;;;;;;21.77;13.27;;;;;;;4.55;82.58;97308.44;5047868;28;20203;-77
2023/01/29 10:04:50;;;;;;;11.33;8.80;;;;;;;4.65;82.59;97302.28;5047464;28;20229;-75
2023/01/29 10:07:48;;;;;;;14.07;10.00;;;;;;;4.44;84.33;97294.97;5041482;28;20202;-74
2023/01/29 10:10:28;;;;;;;12.77;8.13;;;;;;;4.24;82.96;97292.75;5047312;28;20282;-76
2023/01/29 10:13:18;;;;;;;13.47;9.20;;;;;;;3.92;84.40;97287.28;5046947;28;20190;-74
2023/01/29 10:15:51;;;;;;;15.17;10.47;;;;;;;4.18;83.00;97292.88;5046352;28;20196;-76
2023/01/29 10:18:42;;;;;;;12.93;9.33;;;;;;;4.19;83.85;97289.41;5040196;28;20301;-74
2023/01/29 10:21:15;;;;;;;21.83;10.03;;;;;;;4.50;82.85;97282.88;5025976;28;20714;-74
2023/01/29 10:23:49;;;;;;;18.80;11.90;;;;;;;4.66;81.38;97270.59;5026280;28;20743;-75
2023/01/29 10:26:26;;;;;;;11.20;7.40;;;;;;;4.57;78.59;97273.38;5027092;28;20189;-75
2023/01/29 10:28:57;;;;;;;9.93;6.43;;;;;;;4.68;78.89;97274.00;5027638;28;20335;-74
2023/01/29 10:31:35;;;;;;;7.73;6.27;;;;;;;4.66;77.16;97279.16;5025338;28;20293;-75
2023/01/29 10:34:18;;;;;;;10.13;7.57;;;;;;;4.59;75.44;97269.03;5026389;28;20249;-75
2023/01/29 10:36:48;;;;;;;9.73;7.03;;;;;;;4.62;76.58;97264.69;5027496;28;20192;-77
2023/01/29 10:39:23;;;;;;;16.37;8.70;;;;;;;4.57;78.09;97266.53;5025600;28;20258;-77
2023/01/29 10:41:59;;;;;;;8.77;6.80;;;;;;;4.60;75.85;97265.59;5046901;28;20226;-75
2023/01/29 10:44:54;;;;;;;11.23;6.90;;;;;;;4.58;75.77;97259.66;5046712;28;20685;-75
2023/01/29 10:47:51;;;;;;;9.37;6.53;;;;;;;4.84;75.30;97255.69;5045456;28;20208;-77
2023/01/29 10:50:25;;;;;;;10.23;6.73;;;;;;;4.66;74.20;97258.63;5046375;28;20248;-76
2023/01/29 10:53:33;;;;;;;12.13;8.37;;;;;;;4.51;74.22;97251.25;5046609;28;20190;-75
2023/01/29 10:56:03;;;;;;;11.13;8.30;;;;;;;4.52;75.02;97247.78;5045505;28;20587;-75
2023/01/29 10:59:17;;;;;;;13.73;9.77;;;;;;;4.62;76.06;97249.31;5047351;28;20238;-75
2023/01/29 11:01:44;;;;;;;12.73;8.93;;;;;;;4.73;75.20;97249.09;5046318;28;20302;-75
2023/01/29 11:04:13;;;;;;;22.50;13.03;;;;;;;4.50;77.58;97239.28;5045863;28;20885;-77
2023/01/29 11:06:40;;;;;;;27.00;16.03;;;;;;;4.32;79.22;97229.38;5046735;28;20675;-76
2023/01/29 11:09:18;;;;;;;18.20;11.60;;;;;;;4.36;78.79;97231.03;5045135;28;20226;-76
2023/01/29 11:12:19;;;;;;;21.13;13.53;;;;;;;4.51;79.53;97233.31;5038790;28;20195;-76
2023/01/29 11:14:52;;;;;;;17.03;11.63;;;;;;;4.64;79.92;97232.19;5025606;28;20212;-76
2023/01/29 11:17:21;;;;;;;23.77;10.50;;;;;;;4.67;79.95;97224.44;5026609;28;20196;-76
2023/01/29 11:19:51;;;;;;;15.70;10.33;;;;;;;4.89;77.90;97241.06;5028868;28;20281;-77
2023/01/29 11:22:26;;;;;;;17.90;9.77;;;;;;;4.87;76.67;97240.25;5033388;28;20207;-76
2023/01/29 11:25:31;;;;;;;20.90;11.33;;;;;;;5.15;75.70;97229.44;5026825;28;20242;-77
2023/01/29 11:28:00;;;;;;;23.73;9.60;;;;;;;5.11;75.75;97232.94;4965037;28;20738;-76
2023/01/29 11:30:37;;;;;;;16.73;9.37;;;;;;;4.81;76.03;97213.88;5016297;28;20202;-77
2023/01/29 11:33:04;;;;;;;13.60;8.93;;;;;;;4.82;75.84;97224.09;5026222;28;20203;-76
2023/01/29 11:35:32;;;;;;;13.67;10.07;;;;;;;4.42;78.20;97215.53;5025898;28;20195;-74
2023/01/29 11:38:26;;;;;;;13.70;8.87;;;;;;;4.57;79.76;97225.50;5026897;28;20179;-77
2023/01/29 11:41:05;;;;;;;11.03;8.20;;;;;;;4.64;80.33;97226.19;5024390;28;20235;-75
2023/01/29 11:43:33;;;;;;;13.70;9.23;;;;;;;4.16;81.07;97211.75;5041650;28;20187;-76
2023/01/29 11:46:06;;;;;;;13.73;9.30;;;;;;;4.21;82.22;97207.38;5027036;28;20216;-74
2023/01/29 11:48:44;;;;;;;9.77;7.20;;;;;;;3.95;83.30;97213.81;5024456;28;20224;-74
2023/01/29 11:51:21;;;;;;;15.00;9.03;;;;;;;4.03;83.17;97223.94;5025546;28;20209;-74
2023/01/29 11:53:54;;;;;;;9.73;7.87;;;;;;;4.14;82.87;97215.16;5025862;28;20182;-74
2023/01/29 11:56:38;;;;;;;13.93;9.10;;;;;;;3.92;83.39;97213.00;5026588;28;20652;-73
2023/01/29 11:59:12;;;;;;;15.10;9.40;;;;;;;3.99;83.81;97219.72;5026223;28;20191;-73
2023/01/29 12:01:40;;;;;;;12.73;8.23;;;;;;;3.93;83.67;97213.00;5025700;28;20297;-74
2023/01/29 12:04:19;;;;;;;13.90;8.53;;;;;;;4.10;83.20;97210.16;5027033;28;20220;-73
2023/01/29 12:06:50;;;;;;;13.87;8.93;;;;;;;4.19;82.74;97202.28;5025891;28;20207;-77
2023/01/29 12:09:26;;;;;;;14.23;8.97;;;;;;;4.22;82.31;97203.94;5041347;28;20222;-74
2023/01/29 12:11:53;;;;;;;13.10;9.57;;;;;;;4.37;81.07;97201.94;5024582;28;20203;-74
2023/01/29 12:14:34;;;;;;;19.53;10.13;;;;;;;4.07;82.87;97199.94;5025604;28;20249;-77
2023/01/29 12:17:04;;;;;;;14.53;9.17;;;;;;;4.32;82.16;97210.59;5032243;28;20255;-77
2023/01/29 12:19:44;;;;;;;11.47;8.03;;;;;;;4.37;81.87;97203.66;5029423;28;20294;-76
2023/01/29 12:22:32;;;;;;;19.97;11.43;;;;;;;4.52;81.34;97211.91;5045914;28;20187;-77
2023/01/29 12:25:22;;;;;;;19.77;9.97;;;;;;;4.69;81.09;97215.00;5044606;28;20190;-77
2023/01/29 12:27:58;;;;;;;12.50;8.23;;;;;;;4.56;75.75;97204.97;5045039;28;20210;-73
2023/01/29 12:30:43;;;;;;;10.40;7.83;;;;;;;4.67;77.35;97201.34;5046058;28;20198;-76
2023/01/29 12:33:19;;;;;;;5.13;4.10;;;;;;;4.56;70.74;97212.69;5044495;28;20202;-77
2023/01/29 12:35:53;;;;;;;6.90;4.93;;;;;;;4.46;71.30;97217.16;5045069;28;20199;-76
2023/01/29 12:38:22;;;;;;;6.17;4.77;;;;;;;4.36;69.88;97197.69;5028124;28;20636;-73
2023/01/29 12:41:04;;;;;;;7.33;5.67;;;;;;;4.33;70.48;97208.00;5043510;28;20259;-76